sensor_id;sensor_type;location;lat;lon;timestamp;pressure;altitude;pressure_sealevel;temperature;humidity
74045;BME280;62389;51.412;5.436;2022-12-07T00:01:39;101753.91;;;3.85;91.55
74045;BME280;62389;51.412;5.436;2022-12-07T00:04:07;101760.81;;;3.86;91.40
74045;BME280;62389;51.412;5.436;2022-12-07T00:06:43;101756.47;;;3.91;90.56
74045;BME280;62389;51.412;5.436;2022-12-07T00:09:15;101755.63;;;3.86;91.40
74045;BME280;62389;51.412;5.436;2022-12-07T00:11:41;101758.22;;;3.80;90.87
74045;BME280;62389;51.412;5.436;2022-12-07T00:14:11;101758.22;;;3.78;91.02
74045;BME280;62389;51.412;5.436;2022-12-07T00:16:37;101741.84;;;3.78;90.73
74045;BME280;62389;51.412;5.436;2022-12-07T00:19:03;101744.44;;;3.73;90.80
74045;BME280;62389;51.412;5.436;2022-12-07T00:21:31;101739.28;;;3.67;91.26
74045;BME280;62389;51.412;5.436;2022-12-07T00:23:57;101739.25;;;3.61;91.18
74045;BME280;62389;51.412;5.436;2022-12-07T00:26:25;101732.38;;;3.54;91.03
74045;BME280;62389;51.412;5.436;2022-12-07T00:28:54;101747.03;;;3.50;91.03
74045;BME280;62389;51.412;5.436;2022-12-07T00:31:22;101740.13;;;3.46;91.73
74045;BME280;62389;51.412;5.436;2022-12-07T00:33:48;101734.97;;;3.43;91.41
74045;BME280;62389;51.412;5.436;2022-12-07T00:36:17;101727.22;;;3.38;91.01
74045;BME280;62389;51.412;5.436;2022-12-07T00:38:43;101728.94;;;3.36;91.49
74045;BME280;62389;51.412;5.436;2022-12-07T00:41:17;101726.34;;;3.32;91.88
74045;BME280;62389;51.412;5.436;2022-12-07T00:43:44;101735.81;;;3.28;91.37
74045;BME280;62389;51.412;5.436;2022-12-07T00:46:10;101724.59;;;3.25;91.86
74045;BME280;62389;51.412;5.436;2022-12-07T00:48:36;101729.78;;;3.22;91.86
74045;BME280;62389;51.412;5.436;2022-12-07T00:51:02;101724.59;;;3.20;91.19
74045;BME280;62389;51.412;5.436;2022-12-07T00:53:29;101722.88;;;3.18;91.79
74045;BME280;62389;51.412;5.436;2022-12-07T00:55:54;101722.88;;;3.15;92.20
74045;BME280;62389;51.412;5.436;2022-12-07T00:58:22;101719.44;;;3.16;92.32
74045;BME280;62389;51.412;5.436;2022-12-07T01:00:47;101715.13;;;3.19;91.73
74045;BME280;62389;51.412;5.436;2022-12-07T01:03:14;101718.56;;;3.20;91.61
74045;BME280;62389;51.412;5.436;2022-12-07T01:05:40;101722.88;;;3.24;91.70
74045;BME280;62389;51.412;5.436;2022-12-07T01:08:13;101715.97;;;3.26;92.33
74045;BME280;62389;51.412;5.436;2022-12-07T01:10:38;101714.28;;;3.25;91.47
74045;BME280;62389;51.412;5.436;2022-12-07T01:13:04;101722.03;;;3.22;91.94
74045;BME280;62389;51.412;5.436;2022-12-07T01:15:29;101725.47;;;3.19;91.79
74045;BME280;62389;51.412;5.436;2022-12-07T01:17:54;101729.75;;;3.16;92.00
74045;BME280;62389;51.412;5.436;2022-12-07T01:20:20;101730.63;;;3.13;92.20
74045;BME280;62389;51.412;5.436;2022-12-07T01:22:45;101726.34;;;3.12;92.23
74045;BME280;62389;51.412;5.436;2022-12-07T01:25:11;101728.91;;;3.10;92.31
74045;BME280;62389;51.412;5.436;2022-12-07T01:27:37;101726.31;;;3.10;91.93
74045;BME280;62389;51.412;5.436;2022-12-07T01:30:04;101723.75;;;3.12;92.31
74045;BME280;62389;51.412;5.436;2022-12-07T01:32:30;101725.47;;;3.15;91.79
74045;BME280;62389;51.412;5.436;2022-12-07T01:34:55;101723.75;;;3.18;91.13
74045;BME280;62389;51.412;5.436;2022-12-07T01:37:21;101726.31;;;3.21;91.44
74045;BME280;62389;51.412;5.436;2022-12-07T01:39:50;101727.19;;;3.20;91.59
74045;BME280;62389;51.412;5.436;2022-12-07T01:42:16;101730.66;;;3.18;91.16
74045;BME280;62389;51.412;5.436;2022-12-07T01:47:53;101734.06;;;3.15;91.37
74045;BME280;62389;51.412;5.436;2022-12-07T01:50:21;101734.09;;;3.14;91.83
74045;BME280;62389;51.412;5.436;2022-12-07T01:52:50;101728.06;;;3.13;91.72
74045;BME280;62389;51.412;5.436;2022-12-07T01:55:17;101717.72;;;3.15;91.82
74045;BME280;62389;51.412;5.436;2022-12-07T01:57:47;101727.19;;;3.16;92.28
74045;BME280;62389;51.412;5.436;2022-12-07T02:00:14;101724.59;;;3.19;91.71
74045;BME280;62389;51.412;5.436;2022-12-07T02:02:46;101722.03;;;3.23;92.04
74045;BME280;62389;51.412;5.436;2022-12-07T02:05:13;101737.53;;;3.29;92.09
74045;BME280;62389;51.412;5.436;2022-12-07T02:07:39;101729.81;;;3.37;91.80
74045;BME280;62389;51.412;5.436;2022-12-07T02:10:18;101729.81;;;3.37;91.92
74045;BME280;62389;51.412;5.436;2022-12-07T02:12:47;101719.47;;;3.32;92.30
74045;BME280;62389;51.412;5.436;2022-12-07T02:15:13;101719.44;;;3.29;91.96
74045;BME280;62389;51.412;5.436;2022-12-07T02:17:42;101717.72;;;3.27;92.49
74045;BME280;62389;51.412;5.436;2022-12-07T02:20:26;101718.56;;;3.24;92.44
74045;BME280;62389;51.412;5.436;2022-12-07T02:31:01;101716.88;;;3.32;92.10
74045;BME280;62389;51.412;5.436;2022-12-07T02:33:31;101717.72;;;3.36;92.14
74045;BME280;62389;51.412;5.436;2022-12-07T02:36:10;101716.84;;;3.40;91.78
74045;BME280;62389;51.412;5.436;2022-12-07T02:41:12;101722.03;;;3.40;91.75
74045;BME280;62389;51.412;5.436;2022-12-07T02:43:42;101713.41;;;3.35;92.57
74045;BME280;62389;51.412;5.436;2022-12-07T02:46:18;101717.75;;;3.31;91.83
74045;BME280;62389;51.412;5.436;2022-12-07T02:48:46;101711.69;;;3.26;91.94
74045;BME280;62389;51.412;5.436;2022-12-07T02:51:12;101705.66;;;3.23;92.60
74045;BME280;62389;51.412;5.436;2022-12-07T02:53:43;101711.69;;;3.22;92.58
74045;BME280;62389;51.412;5.436;2022-12-07T03:01:21;101704.78;;;3.19;92.24
74045;BME280;62389;51.412;5.436;2022-12-07T03:04:07;101703.91;;;3.16;91.81
74045;BME280;62389;51.412;5.436;2022-12-07T03:06:43;101712.53;;;3.13;92.26
74045;BME280;62389;51.412;5.436;2022-12-07T03:09:36;101721.16;;;3.14;91.62
74045;BME280;62389;51.412;5.436;2022-12-07T03:12:11;101717.72;;;3.15;92.48
74045;BME280;62389;51.412;5.436;2022-12-07T03:14:43;101713.41;;;3.15;92.54
74045;BME280;62389;51.412;5.436;2022-12-07T03:17:15;101713.41;;;3.15;92.42
74045;BME280;62389;51.412;5.436;2022-12-07T03:19:44;101716.84;;;3.14;92.52
74045;BME280;62389;51.412;5.436;2022-12-07T03:22:12;101713.41;;;3.12;92.23
74045;BME280;62389;51.412;5.436;2022-12-07T03:24:42;101715.13;;;3.10;92.08
74045;BME280;62389;51.412;5.436;2022-12-07T03:27:16;101715.13;;;3.08;91.68
74045;BME280;62389;51.412;5.436;2022-12-07T03:29:48;101717.69;;;3.05;92.23
74045;BME280;62389;51.412;5.436;2022-12-07T03:34:52;101708.22;;;3.00;91.97
74045;BME280;62389;51.412;5.436;2022-12-07T03:40:02;101700.44;;;2.95;92.29
74045;BME280;62389;51.412;5.436;2022-12-07T03:42:30;101704.78;;;2.96;92.19
74045;BME280;62389;51.412;5.436;2022-12-07T03:44:56;101700.44;;;2.95;92.24
74045;BME280;62389;51.412;5.436;2022-12-07T03:47:29;101695.28;;;2.95;92.49
74045;BME280;62389;51.412;5.436;2022-12-07T03:50:07;101699.59;;;2.95;92.19
74045;BME280;62389;51.412;5.436;2022-12-07T03:52:55;101700.47;;;2.94;92.54
74045;BME280;62389;51.412;5.436;2022-12-07T03:55:44;101699.59;;;2.95;92.51
74045;BME280;62389;51.412;5.436;2022-12-07T03:58:16;101710.81;;;2.98;92.09
74045;BME280;62389;51.412;5.436;2022-12-07T04:00:42;101716.84;;;3.05;92.08
74045;BME280;62389;51.412;5.436;2022-12-07T04:03:08;101713.41;;;3.09;91.96
74045;BME280;62389;51.412;5.436;2022-12-07T04:05:34;101709.97;;;3.13;92.70
74045;BME280;62389;51.412;5.436;2022-12-07T04:07:59;101711.69;;;3.14;92.47
74045;BME280;62389;51.412;5.436;2022-12-07T04:10:25;101708.22;;;3.14;92.59
74045;BME280;62389;51.412;5.436;2022-12-07T04:12:50;101707.38;;;3.18;92.35
74045;BME280;62389;51.412;5.436;2022-12-07T04:15:16;101709.09;;;3.19;91.95
74045;BME280;62389;51.412;5.436;2022-12-07T04:17:41;101706.50;;;3.20;92.27
74045;BME280;62389;51.412;5.436;2022-12-07T04:20:07;101711.69;;;3.19;92.48
74045;BME280;62389;51.412;5.436;2022-12-07T04:22:33;101702.22;;;3.18;92.21
74045;BME280;62389;51.412;5.436;2022-12-07T04:24:58;101706.50;;;3.16;92.09
74045;BME280;62389;51.412;5.436;2022-12-07T04:27:24;101709.09;;;3.16;92.38
74045;BME280;62389;51.412;5.436;2022-12-07T04:29:49;101703.91;;;3.16;92.35
74045;BME280;62389;51.412;5.436;2022-12-07T04:32:14;101701.34;;;3.17;92.29
74045;BME280;62389;51.412;5.436;2022-12-07T04:34:40;101697.03;;;3.18;92.28
74045;BME280;62389;51.412;5.436;2022-12-07T04:37:05;101689.28;;;3.18;92.61
74045;BME280;62389;51.412;5.436;2022-12-07T04:39:31;101695.31;;;3.20;92.36
74045;BME280;62389;51.412;5.436;2022-12-07T04:41:58;101681.50;;;3.21;92.57
74045;BME280;62389;51.412;5.436;2022-12-07T04:44:24;101684.13;;;3.22;92.40
74045;BME280;62389;51.412;5.436;2022-12-07T04:46:50;101688.41;;;3.25;92.37
74045;BME280;62389;51.412;5.436;2022-12-07T04:49:16;101693.59;;;3.28;92.81
74045;BME280;62389;51.412;5.436;2022-12-07T04:51:42;101679.81;;;3.29;92.17
74045;BME280;62389;51.412;5.436;2022-12-07T04:54:07;101684.09;;;3.30;92.75
74045;BME280;62389;51.412;5.436;2022-12-07T04:56:33;101691.00;;;3.31;92.06
74045;BME280;62389;51.412;5.436;2022-12-07T04:59:00;101685.84;;;3.32;92.79
74045;BME280;62389;51.412;5.436;2022-12-07T05:01:26;101683.22;;;3.35;92.29
74045;BME280;62389;51.412;5.436;2022-12-07T05:03:51;101686.69;;;3.37;92.71
74045;BME280;62389;51.412;5.436;2022-12-07T05:06:17;101689.28;;;3.37;92.47
74045;BME280;62389;51.412;5.436;2022-12-07T05:08:42;101689.28;;;3.39;92.75
74045;BME280;62389;51.412;5.436;2022-12-07T05:11:08;101697.03;;;3.42;92.99
74045;BME280;62389;51.412;5.436;2022-12-07T05:13:36;101695.31;;;3.44;92.60
74045;BME280;62389;51.412;5.436;2022-12-07T05:16:01;101691.00;;;3.42;92.29
74045;BME280;62389;51.412;5.436;2022-12-07T05:18:27;101688.41;;;3.40;92.24
74045;BME280;62389;51.412;5.436;2022-12-07T05:20:53;101685.84;;;3.37;92.97
74045;BME280;62389;51.412;5.436;2022-12-07T05:23:18;101680.66;;;3.35;92.37
74045;BME280;62389;51.412;5.436;2022-12-07T05:25:44;101684.09;;;3.36;92.60
74045;BME280;62389;51.412;5.436;2022-12-07T05:28:10;101677.22;;;3.38;93.17
74045;BME280;62389;51.412;5.436;2022-12-07T05:30:35;101668.59;;;3.37;92.76
74045;BME280;62389;51.412;5.436;2022-12-07T05:33:00;101680.66;;;3.38;92.72
74045;BME280;62389;51.412;5.436;2022-12-07T05:35:26;101678.94;;;3.39;92.68
74045;BME280;62389;51.412;5.436;2022-12-07T05:37:51;101675.50;;;3.42;92.29
74045;BME280;62389;51.412;5.436;2022-12-07T05:40:17;101685.84;;;3.43;92.52
74045;BME280;62389;51.412;5.436;2022-12-07T05:42:44;101674.63;;;3.44;92.04
74045;BME280;62389;51.412;5.436;2022-12-07T05:45:10;101678.94;;;3.47;92.16
74045;BME280;62389;51.412;5.436;2022-12-07T05:47:36;101676.34;;;3.45;92.00
74045;BME280;62389;51.412;5.436;2022-12-07T05:50:03;101676.34;;;3.45;91.51
74045;BME280;62389;51.412;5.436;2022-12-07T05:52:29;101671.19;;;3.42;92.00
74045;BME280;62389;51.412;5.436;2022-12-07T05:54:54;101666.00;;;3.39;91.85
74045;BME280;62389;51.412;5.436;2022-12-07T05:57:19;101667.72;;;3.35;91.68
74045;BME280;62389;51.412;5.436;2022-12-07T05:59:45;101659.97;;;3.32;91.16
74045;BME280;62389;51.412;5.436;2022-12-07T06:02:13;101668.59;;;3.28;91.24
74045;BME280;62389;51.412;5.436;2022-12-07T06:04:41;101665.16;;;3.22;91.34
74045;BME280;62389;51.412;5.436;2022-12-07T06:07:08;101671.19;;;3.18;91.39
74045;BME280;62389;51.412;5.436;2022-12-07T06:09:35;101666.03;;;3.18;92.05
74045;BME280;62389;51.412;5.436;2022-12-07T06:12:01;101671.19;;;3.15;91.53
74045;BME280;62389;51.412;5.436;2022-12-07T06:14:45;101668.59;;;3.13;91.84
74045;BME280;62389;51.412;5.436;2022-12-07T06:17:11;101667.72;;;3.11;91.62
74045;BME280;62389;51.412;5.436;2022-12-07T06:19:38;101686.69;;;3.07;91.70
74045;BME280;62389;51.412;5.436;2022-12-07T06:22:04;101672.03;;;3.04;91.43
74045;BME280;62389;51.412;5.436;2022-12-07T06:24:33;101679.81;;;3.01;92.13
74045;BME280;62389;51.412;5.436;2022-12-07T06:26:58;101683.22;;;3.00;91.60
74045;BME280;62389;51.412;5.436;2022-12-07T06:29:24;101681.50;;;2.98;92.26
74045;BME280;62389;51.412;5.436;2022-12-07T06:31:49;101678.06;;;2.97;91.62
74045;BME280;62389;51.412;5.436;2022-12-07T06:34:18;101679.78;;;2.94;91.62
74045;BME280;62389;51.412;5.436;2022-12-07T06:36:43;101682.38;;;2.88;92.19
74045;BME280;62389;51.412;5.436;2022-12-07T06:39:09;101686.63;;;2.81;92.48
74045;BME280;62389;51.412;5.436;2022-12-07T06:41:36;101679.75;;;2.77;92.09
74045;BME280;62389;51.412;5.436;2022-12-07T06:44:03;101683.19;;;2.76;92.29
74045;BME280;62389;51.412;5.436;2022-12-07T06:46:28;101678.91;;;2.72;92.64
74045;BME280;62389;51.412;5.436;2022-12-07T06:48:53;101678.00;;;2.70;92.12
74045;BME280;62389;51.412;5.436;2022-12-07T06:51:19;101685.78;;;2.67;92.36
74045;BME280;62389;51.412;5.436;2022-12-07T06:53:44;101695.22;;;2.65;92.68
74045;BME280;62389;51.412;5.436;2022-12-07T06:56:10;101690.91;;;2.64;92.87
74045;BME280;62389;51.412;5.436;2022-12-07T06:58:35;101685.75;;;2.65;92.80
74045;BME280;62389;51.412;5.436;2022-12-07T07:01:01;101692.66;;;2.63;93.03
74045;BME280;62389;51.412;5.436;2022-12-07T07:03:27;101690.06;;;2.63;93.00
74045;BME280;62389;51.412;5.436;2022-12-07T07:05:52;101678.88;;;2.63;93.62
74045;BME280;62389;51.412;5.436;2022-12-07T07:08:17;101692.66;;;2.63;92.66
74045;BME280;62389;51.412;5.436;2022-12-07T07:10:43;101684.03;;;2.63;92.97
74045;BME280;62389;51.412;5.436;2022-12-07T07:13:08;101692.66;;;2.62;93.49
74045;BME280;62389;51.412;5.436;2022-12-07T07:15:34;101689.19;;;2.64;92.96
74045;BME280;62389;51.412;5.436;2022-12-07T07:17:59;101695.22;;;2.65;93.28
74045;BME280;62389;51.412;5.436;2022-12-07T07:20:26;101684.03;;;2.64;92.92
74045;BME280;62389;51.412;5.436;2022-12-07T07:22:54;101689.19;;;2.66;92.87
74045;BME280;62389;51.412;5.436;2022-12-07T07:25:19;101679.75;;;2.68;92.70
74045;BME280;62389;51.412;5.436;2022-12-07T07:27:45;101684.03;;;2.69;93.04
74045;BME280;62389;51.412;5.436;2022-12-07T07:30:10;101683.19;;;2.67;92.97
74045;BME280;62389;51.412;5.436;2022-12-07T07:32:36;101685.78;;;2.67;92.70
74045;BME280;62389;51.412;5.436;2022-12-07T07:35:01;101684.91;;;2.66;92.90
74045;BME280;62389;51.412;5.436;2022-12-07T07:37:27;101684.06;;;2.67;92.80
74045;BME280;62389;51.412;5.436;2022-12-07T07:39:52;101678.88;;;2.67;92.70
74045;BME280;62389;51.412;5.436;2022-12-07T07:42:18;101686.63;;;2.69;92.50
74045;BME280;62389;51.412;5.436;2022-12-07T07:44:43;101687.50;;;2.68;92.61
74045;BME280;62389;51.412;5.436;2022-12-07T07:47:09;101689.19;;;2.66;92.10
74045;BME280;62389;51.412;5.436;2022-12-07T07:49:34;101692.63;;;2.65;91.95
74045;BME280;62389;51.412;5.436;2022-12-07T07:51:59;101699.53;;;2.64;92.36
74045;BME280;62389;51.412;5.436;2022-12-07T07:54:25;101693.53;;;2.67;92.26
74045;BME280;62389;51.412;5.436;2022-12-07T07:56:50;101702.13;;;2.69;92.70
74045;BME280;62389;51.412;5.436;2022-12-07T07:59:15;101705.59;;;2.74;92.41
74045;BME280;62389;51.412;5.436;2022-12-07T08:01:41;101704.75;;;2.76;92.41
74045;BME280;62389;51.412;5.436;2022-12-07T08:04:06;101708.19;;;2.81;92.48
74045;BME280;62389;51.412;5.436;2022-12-07T08:06:32;101708.19;;;2.83;92.35
74045;BME280;62389;51.412;5.436;2022-12-07T08:08:57;101700.44;;;2.86;91.73
74045;BME280;62389;51.412;5.436;2022-12-07T08:11:23;101704.75;;;2.90;91.87
74045;BME280;62389;51.412;5.436;2022-12-07T08:13:49;101701.28;;;2.91;91.47
74045;BME280;62389;51.412;5.436;2022-12-07T08:16:14;101706.47;;;2.91;91.97
74045;BME280;62389;51.412;5.436;2022-12-07T08:18:41;101709.91;;;2.90;91.94
74045;BME280;62389;51.412;5.436;2022-12-07T08:21:10;101706.47;;;2.88;91.50
74045;BME280;62389;51.412;5.436;2022-12-07T08:23:36;101707.34;;;2.87;91.52
74045;BME280;62389;51.412;5.436;2022-12-07T08:26:07;101707.31;;;2.84;91.61
74045;BME280;62389;51.412;5.436;2022-12-07T08:28:32;101715.09;;;2.82;92.38
74045;BME280;62389;51.412;5.436;2022-12-07T08:31:02;101709.03;;;2.85;92.18
74045;BME280;62389;51.412;5.436;2022-12-07T08:33:28;101717.69;;;2.89;91.73
74045;BME280;62389;51.412;5.436;2022-12-07T08:35:54;101720.28;;;2.92;91.97
74045;BME280;62389;51.412;5.436;2022-12-07T08:38:19;101723.69;;;2.91;91.61
74045;BME280;62389;51.412;5.436;2022-12-07T08:40:45;101723.72;;;2.94;91.48
74045;BME280;62389;51.412;5.436;2022-12-07T08:43:10;101729.75;;;2.99;92.36
74045;BME280;62389;51.412;5.436;2022-12-07T08:45:35;101728.03;;;3.01;91.58
74045;BME280;62389;51.412;5.436;2022-12-07T08:48:02;101728.03;;;3.04;91.53
74045;BME280;62389;51.412;5.436;2022-12-07T08:50:29;101722.03;;;3.08;91.13
74045;BME280;62389;51.412;5.436;2022-12-07T08:52:57;101719.44;;;3.13;91.59
74045;BME280;62389;51.412;5.436;2022-12-07T08:55:23;101714.28;;;3.19;91.29
74045;BME280;62389;51.412;5.436;2022-12-07T08:57:49;101712.56;;;3.24;90.92
74045;BME280;62389;51.412;5.436;2022-12-07T09:00:15;101707.38;;;3.28;90.64
74045;BME280;62389;51.412;5.436;2022-12-07T09:02:43;101710.81;;;3.35;91.29
74045;BME280;62389;51.412;5.436;2022-12-07T09:05:09;101717.72;;;3.45;90.57
74045;BME280;62389;51.412;5.436;2022-12-07T09:07:35;101708.25;;;3.49;90.21
74045;BME280;62389;51.412;5.436;2022-12-07T09:10:01;101708.25;;;3.52;90.43
74045;BME280;62389;51.412;5.436;2022-12-07T09:12:26;101716.88;;;3.57;90.13
74045;BME280;62389;51.412;5.436;2022-12-07T09:14:51;101717.72;;;3.63;90.41
74045;BME280;62389;51.412;5.436;2022-12-07T09:17:17;101714.25;;;3.68;89.96
74045;BME280;62389;51.412;5.436;2022-12-07T09:19:42;101714.25;;;3.74;90.52
74045;BME280;62389;51.412;5.436;2022-12-07T09:22:08;101715.94;;;3.81;90.28
74045;BME280;62389;51.412;5.436;2022-12-07T09:24:34;101713.38;;;3.87;89.90
74045;BME280;62389;51.412;5.436;2022-12-07T09:26:59;101708.19;;;3.88;89.84
74045;BME280;62389;51.412;5.436;2022-12-07T09:29:25;101703.00;;;3.90;89.90
74045;BME280;62389;51.412;5.436;2022-12-07T09:31:53;101708.19;;;3.92;90.10
74045;BME280;62389;51.412;5.436;2022-12-07T09:34:19;101708.19;;;3.93;89.85
74045;BME280;62389;51.412;5.436;2022-12-07T09:36:45;101706.44;;;3.95;89.37
74045;BME280;62389;51.412;5.436;2022-12-07T09:39:11;101709.88;;;3.99;89.95
74045;BME280;62389;51.412;5.436;2022-12-07T09:41:41;101704.69;;;4.03;90.02
74045;BME280;62389;51.412;5.436;2022-12-07T09:44:12;101709.84;;;4.09;89.32
74045;BME280;62389;51.412;5.436;2022-12-07T09:46:41;101707.25;;;4.14;88.93
74045;BME280;62389;51.412;5.436;2022-12-07T09:49:16;101708.09;;;4.19;88.82
74045;BME280;62389;51.412;5.436;2022-12-07T09:51:43;101714.13;;;4.23;88.71
74045;BME280;62389;51.412;5.436;2022-12-07T09:54:13;101714.09;;;4.26;88.18
74045;BME280;62389;51.412;5.436;2022-12-07T09:56:38;101710.66;;;4.27;88.11
74045;BME280;62389;51.412;5.436;2022-12-07T09:59:04;101712.38;;;4.28;88.67
74045;BME280;62389;51.412;5.436;2022-12-07T10:01:31;101711.50;;;4.32;88.33
74045;BME280;62389;51.412;5.436;2022-12-07T10:04:15;101708.91;;;4.38;88.00
74045;BME280;62389;51.412;5.436;2022-12-07T10:06:42;101706.28;;;4.41;88.06
74045;BME280;62389;51.412;5.436;2022-12-07T10:09:18;101703.72;;;4.38;87.21
74045;BME280;62389;51.412;5.436;2022-12-07T10:12:04;101708.94;;;4.32;87.26
74045;BME280;62389;51.412;5.436;2022-12-07T10:14:32;101698.56;;;4.29;87.72
74045;BME280;62389;51.412;5.436;2022-12-07T10:16:58;101693.34;;;4.36;87.98
74045;BME280;62389;51.412;5.436;2022-12-07T10:19:30;101698.47;;;4.49;88.20
74045;BME280;62389;51.412;5.436;2022-12-07T10:24:29;101688.81;;;4.78;87.86
74045;BME280;62389;51.412;5.436;2022-12-07T10:26:55;101682.75;;;4.81;87.02
74045;BME280;62389;51.412;5.436;2022-12-07T10:29:30;101679.28;;;4.82;86.76
74045;BME280;62389;51.412;5.436;2022-12-07T10:32:03;101680.09;;;4.90;86.74
74045;BME280;62389;51.412;5.436;2022-12-07T10:34:34;101681.78;;;4.97;85.47
74045;BME280;62389;51.412;5.436;2022-12-07T10:39:48;101662.72;;;5.04;86.46
74045;BME280;62389;51.412;5.436;2022-12-07T10:42:29;101666.13;;;5.06;85.77
74045;BME280;62389;51.412;5.436;2022-12-07T10:45:13;101654.88;;;5.10;86.13
74045;BME280;62389;51.412;5.436;2022-12-07T10:48:42;101658.22;;;5.22;86.14
74045;BME280;62389;51.412;5.436;2022-12-07T11:10:15;101637.69;;;6.59;81.17
74045;BME280;62389;51.412;5.436;2022-12-07T11:23:48;101616.03;;;8.45;74.44
74045;BME280;62389;51.412;5.436;2022-12-07T11:31:20;101606.25;;;7.71;77.40
74045;BME280;62389;51.412;5.436;2022-12-07T11:36:44;101604.97;;;8.32;78.26
74045;BME280;62389;51.412;5.436;2022-12-07T11:39:33;101593.56;;;8.40;74.39
74045;BME280;62389;51.412;5.436;2022-12-07T11:42:06;101597.53;;;8.16;75.59
74045;BME280;62389;51.412;5.436;2022-12-07T11:47:16;101586.50;;;7.61;75.72
74045;BME280;62389;51.412;5.436;2022-12-07T11:49:54;101588.78;;;7.32;77.20
74045;BME280;62389;51.412;5.436;2022-12-07T11:52:44;101588.25;;;7.14;78.14
74045;BME280;62389;51.412;5.436;2022-12-07T11:55:32;101592.69;;;7.08;79.42
74045;BME280;62389;51.412;5.436;2022-12-07T11:58:19;101589.09;;;7.15;78.14
74045;BME280;62389;51.412;5.436;2022-12-07T12:00:48;101584.91;;;7.06;77.30
74045;BME280;62389;51.412;5.436;2022-12-07T12:03:26;101583.34;;;6.96;77.43
74045;BME280;62389;51.412;5.436;2022-12-07T12:05:56;101588.84;;;6.79;77.65
74045;BME280;62389;51.412;5.436;2022-12-07T12:08:30;101587.22;;;6.70;80.10
74045;BME280;62389;51.412;5.436;2022-12-07T12:13:57;101589.13;;;6.61;79.26
74045;BME280;62389;51.412;5.436;2022-12-07T12:16:44;101586.66;;;6.52;79.86
74045;BME280;62389;51.412;5.436;2022-12-07T12:22:23;101580.69;;;6.45;80.68
74045;BME280;62389;51.412;5.436;2022-12-07T12:24:53;101579.91;;;6.40;80.28
74045;BME280;62389;51.412;5.436;2022-12-07T12:27:32;101575.63;;;6.36;80.17
74045;BME280;62389;51.412;5.436;2022-12-07T12:30:02;101577.34;;;6.38;81.10
74045;BME280;62389;51.412;5.436;2022-12-07T12:32:41;101569.31;;;6.52;80.61
74045;BME280;62389;51.412;5.436;2022-12-07T12:37:49;101558.41;;;6.83;78.22
74045;BME280;62389;51.412;5.436;2022-12-07T12:42:50;101555.69;;;7.83;76.04
74045;BME280;62389;51.412;5.436;2022-12-07T12:53:19;101519.78;;;12.46;67.02
74045;BME280;62389;51.412;5.436;2022-12-07T12:55:58;101509.97;;;14.27;60.06
74045;BME280;62389;51.412;5.436;2022-12-07T12:58:37;101509.97;;;15.48;52.73
74045;BME280;62389;51.412;5.436;2022-12-07T13:04:00;101510.38;;;13.63;59.11
74045;BME280;62389;51.412;5.436;2022-12-07T13:08:56;101519.59;;;10.86;60.02
74045;BME280;62389;51.412;5.436;2022-12-07T13:11:44;101515.59;;;9.63;64.62
74045;BME280;62389;51.412;5.436;2022-12-07T13:17:12;101514.88;;;8.22;70.01
74045;BME280;62389;51.412;5.436;2022-12-07T13:20:05;101515.47;;;7.96;71.46
74045;BME280;62389;51.412;5.436;2022-12-07T13:25:18;101504.31;;;7.49;74.25
74045;BME280;62389;51.412;5.436;2022-12-07T13:27:51;101509.94;;;7.26;74.34
74045;BME280;62389;51.412;5.436;2022-12-07T13:30:21;101502.41;;;7.13;74.98
74045;BME280;62389;51.412;5.436;2022-12-07T13:32:52;101503.66;;;6.93;75.64
74045;BME280;62389;51.412;5.436;2022-12-07T13:37:59;101500.00;;;6.54;76.95
74045;BME280;62389;51.412;5.436;2022-12-07T13:40:24;101494.00;;;6.49;77.46
74045;BME280;62389;51.412;5.436;2022-12-07T13:43:04;101488.97;;;6.40;77.54
74045;BME280;62389;51.412;5.436;2022-12-07T13:45:37;101492.63;;;6.27;78.29
74045;BME280;62389;51.412;5.436;2022-12-07T13:48:31;101493.63;;;6.18;78.48
74045;BME280;62389;51.412;5.436;2022-12-07T13:51:01;101491.25;;;6.04;78.80
74045;BME280;62389;51.412;5.436;2022-12-07T13:53:28;101491.28;;;6.01;79.76
74045;BME280;62389;51.412;5.436;2022-12-07T13:55:57;101492.19;;;5.97;79.29
74045;BME280;62389;51.412;5.436;2022-12-07T13:58:23;101486.25;;;5.86;79.61
74045;BME280;62389;51.412;5.436;2022-12-07T14:00:49;101487.19;;;5.83;80.01
74045;BME280;62389;51.412;5.436;2022-12-07T14:05:42;101486.06;;;6.01;79.82
74045;BME280;62389;51.412;5.436;2022-12-07T14:10:39;101484.16;;;6.12;80.43
74045;BME280;62389;51.412;5.436;2022-12-07T14:13:29;101480.69;;;6.15;79.71
74045;BME280;62389;51.412;5.436;2022-12-07T14:15:56;101476.47;;;6.08;80.25
74045;BME280;62389;51.412;5.436;2022-12-07T14:18:39;101473.06;;;6.04;80.58
74045;BME280;62389;51.412;5.436;2022-12-07T14:23:37;101455.81;;;6.00;80.29
74045;BME280;62389;51.412;5.436;2022-12-07T14:26:16;101457.63;;;5.93;80.44
74045;BME280;62389;51.412;5.436;2022-12-07T14:28:44;101455.03;;;5.90;80.77
74045;BME280;62389;51.412;5.436;2022-12-07T14:31:24;101459.41;;;5.87;80.82
74045;BME280;62389;51.412;5.436;2022-12-07T14:33:50;101450.88;;;5.80;81.37
74045;BME280;62389;51.412;5.436;2022-12-07T14:36:15;101446.56;;;5.79;81.41
74045;BME280;62389;51.412;5.436;2022-12-07T14:38:41;101444.84;;;5.77;81.59
74045;BME280;62389;51.412;5.436;2022-12-07T14:41:14;101443.16;;;5.74;81.60
74045;BME280;62389;51.412;5.436;2022-12-07T14:43:59;101438.03;;;5.69;82.70
74045;BME280;62389;51.412;5.436;2022-12-07T14:46:25;101444.13;;;5.67;82.54
74045;BME280;62389;51.412;5.436;2022-12-07T14:48:50;101436.34;;;5.65;82.37
74045;BME280;62389;51.412;5.436;2022-12-07T14:51:15;101432.13;;;5.60;82.84
74045;BME280;62389;51.412;5.436;2022-12-07T14:53:45;101435.63;;;5.57;82.78
74045;BME280;62389;51.412;5.436;2022-12-07T14:56:11;101435.69;;;5.53;83.51
74045;BME280;62389;51.412;5.436;2022-12-07T14:58:36;101439.28;;;5.42;82.94
74045;BME280;62389;51.412;5.436;2022-12-07T15:01:02;101439.28;;;5.42;83.16